sensor_id;sensor_type;location;lat;lon;timestamp;temperature;humidity
51035;DHT22;37062;52.546;13.230;2022-08-03T00:00:58;22.40;99.90
51035;DHT22;37062;52.546;13.230;2022-08-03T00:03:25;22.30;99.90
51035;DHT22;37062;52.546;13.230;2022-08-03T00:05:53;22.30;99.90
51035;DHT22;37062;52.546;13.230;2022-08-03T00:08:21;22.30;99.90
51035;DHT22;37062;52.546;13.230;2022-08-03T00:10:48;22.30;99.90
51035;DHT22;37062;52.546;13.230;2022-08-03T00:13:15;22.30;99.90
51035;DHT22;37062;52.546;13.230;2022-08-03T00:15:44;22.30;99.90
51035;DHT22;37062;52.546;13.230;2022-08-03T00:18:11;22.30;99.90
51035;DHT22;37062;52.546;13.230;2022-08-03T00:20:38;22.30;99.90
51035;DHT22;37062;52.546;13.230;2022-08-03T00:23:07;22.20;99.90
51035;DHT22;37062;52.546;13.230;2022-08-03T00:25:34;22.20;99.90
51035;DHT22;37062;52.546;13.230;2022-08-03T00:28:02;22.30;99.90
51035;DHT22;37062;52.546;13.230;2022-08-03T00:30:31;22.30;99.90
51035;DHT22;37062;52.546;13.230;2022-08-03T00:32:58;22.40;99.90
51035;DHT22;37062;52.546;13.230;2022-08-03T00:35:25;22.40;99.90
51035;DHT22;37062;52.546;13.230;2022-08-03T00:37:52;22.40;99.90
51035;DHT22;37062;52.546;13.230;2022-08-03T00:40:21;22.50;99.90
51035;DHT22;37062;52.546;13.230;2022-08-03T00:42:50;22.40;99.90
51035;DHT22;37062;52.546;13.230;2022-08-03T00:45:19;22.40;99.90
51035;DHT22;37062;52.546;13.230;2022-08-03T00:47:47;22.40;99.90
51035;DHT22;37062;52.546;13.230;2022-08-03T00:50:15;22.40;99.90
51035;DHT22;37062;52.546;13.230;2022-08-03T00:52:43;22.40;99.90
51035;DHT22;37062;52.546;13.230;2022-08-03T00:55:10;22.40;99.90
51035;DHT22;37062;52.546;13.230;2022-08-03T00:57:38;22.40;99.90
51035;DHT22;37062;52.546;13.230;2022-08-03T01:00:08;22.30;99.90
51035;DHT22;37062;52.546;13.230;2022-08-03T01:02:35;22.30;99.90
51035;DHT22;37062;52.546;13.230;2022-08-03T01:05:03;22.20;99.90
51035;DHT22;37062;52.546;13.230;2022-08-03T01:07:40;22.20;99.90
51035;DHT22;37062;52.546;13.230;2022-08-03T01:10:14;22.20;99.90
51035;DHT22;37062;52.546;13.230;2022-08-03T01:12:49;22.20;99.90
51035;DHT22;37062;52.546;13.230;2022-08-03T01:15:24;22.20;99.90
51035;DHT22;37062;52.546;13.230;2022-08-03T01:17:58;22.30;99.90
51035;DHT22;37062;52.546;13.230;2022-08-03T01:20:32;22.30;99.90
51035;DHT22;37062;52.546;13.230;2022-08-03T01:23:23;22.30;99.90
51035;DHT22;37062;52.546;13.230;2022-08-03T01:26:10;22.30;99.90
51035;DHT22;37062;52.546;13.230;2022-08-03T01:31:38;22.30;99.90
51035;DHT22;37062;52.546;13.230;2022-08-03T01:34:07;22.40;99.90
51035;DHT22;37062;52.546;13.230;2022-08-03T01:36:38;22.50;99.90
51035;DHT22;37062;52.546;13.230;2022-08-03T01:39:06;22.50;99.90
51035;DHT22;37062;52.546;13.230;2022-08-03T01:41:38;22.50;99.90
51035;DHT22;37062;52.546;13.230;2022-08-03T01:44:10;22.50;99.90
51035;DHT22;37062;52.546;13.230;2022-08-03T01:46:40;22.60;99.90
51035;DHT22;37062;52.546;13.230;2022-08-03T01:49:09;22.60;99.90
51035;DHT22;37062;52.546;13.230;2022-08-03T01:51:38;22.60;99.90
51035;DHT22;37062;52.546;13.230;2022-08-03T01:54:09;22.60;99.90
51035;DHT22;37062;52.546;13.230;2022-08-03T01:56:37;22.60;99.90
51035;DHT22;37062;52.546;13.230;2022-08-03T01:59:06;22.70;99.90
51035;DHT22;37062;52.546;13.230;2022-08-03T02:01:35;22.70;99.90
51035;DHT22;37062;52.546;13.230;2022-08-03T02:04:05;22.70;99.90
51035;DHT22;37062;52.546;13.230;2022-08-03T02:06:34;22.80;99.90
51035;DHT22;37062;52.546;13.230;2022-08-03T02:09:03;22.80;99.90
51035;DHT22;37062;52.546;13.230;2022-08-03T02:11:31;22.80;99.90
51035;DHT22;37062;52.546;13.230;2022-08-03T02:14:01;22.80;99.90
51035;DHT22;37062;52.546;13.230;2022-08-03T02:16:32;22.90;99.90
51035;DHT22;37062;52.546;13.230;2022-08-03T02:19:00;22.80;99.90
51035;DHT22;37062;52.546;13.230;2022-08-03T02:21:32;22.80;99.90
51035;DHT22;37062;52.546;13.230;2022-08-03T02:24:01;22.80;99.90
51035;DHT22;37062;52.546;13.230;2022-08-03T02:26:30;22.80;99.90
51035;DHT22;37062;52.546;13.230;2022-08-03T02:29:02;22.80;99.90
51035;DHT22;37062;52.546;13.230;2022-08-03T02:31:33;22.80;99.90
51035;DHT22;37062;52.546;13.230;2022-08-03T02:34:07;22.80;99.90
51035;DHT22;37062;52.546;13.230;2022-08-03T02:36:38;22.80;99.90
51035;DHT22;37062;52.546;13.230;2022-08-03T02:39:09;22.80;99.90
51035;DHT22;37062;52.546;13.230;2022-08-03T02:41:42;22.80;99.90
51035;DHT22;37062;52.546;13.230;2022-08-03T02:44:10;22.80;99.90
51035;DHT22;37062;52.546;13.230;2022-08-03T02:46:40;22.80;99.90
51035;DHT22;37062;52.546;13.230;2022-08-03T02:49:11;22.80;99.90
51035;DHT22;37062;52.546;13.230;2022-08-03T02:51:40;22.70;99.90
51035;DHT22;37062;52.546;13.230;2022-08-03T02:54:08;22.70;99.90
51035;DHT22;37062;52.546;13.230;2022-08-03T02:56:37;22.70;99.90
51035;DHT22;37062;52.546;13.230;2022-08-03T02:59:05;22.60;99.90
51035;DHT22;37062;52.546;13.230;2022-08-03T03:01:33;22.60;99.90
51035;DHT22;37062;52.546;13.230;2022-08-03T03:04:00;22.50;99.90
51035;DHT22;37062;52.546;13.230;2022-08-03T03:06:28;22.50;99.90
51035;DHT22;37062;52.546;13.230;2022-08-03T03:08:57;22.50;99.90
51035;DHT22;37062;52.546;13.230;2022-08-03T03:11:25;22.40;99.90
51035;DHT22;37062;52.546;13.230;2022-08-03T03:13:52;22.50;99.90
51035;DHT22;37062;52.546;13.230;2022-08-03T03:16:21;22.40;99.90
51035;DHT22;37062;52.546;13.230;2022-08-03T03:18:49;22.40;99.90
51035;DHT22;37062;52.546;13.230;2022-08-03T03:21:18;22.50;99.90
51035;DHT22;37062;52.546;13.230;2022-08-03T03:23:46;22.50;99.90
51035;DHT22;37062;52.546;13.230;2022-08-03T03:26:15;22.50;99.90
51035;DHT22;37062;52.546;13.230;2022-08-03T03:28:43;22.50;99.90
51035;DHT22;37062;52.546;13.230;2022-08-03T03:31:10;22.50;99.90
51035;DHT22;37062;52.546;13.230;2022-08-03T03:33:37;22.50;99.90
51035;DHT22;37062;52.546;13.230;2022-08-03T03:36:05;22.40;99.90
51035;DHT22;37062;52.546;13.230;2022-08-03T03:38:33;22.40;99.90
51035;DHT22;37062;52.546;13.230;2022-08-03T03:41:00;22.30;99.90
51035;DHT22;37062;52.546;13.230;2022-08-03T03:43:31;22.20;99.90
51035;DHT22;37062;52.546;13.230;2022-08-03T03:45:59;22.20;99.90
51035;DHT22;37062;52.546;13.230;2022-08-03T03:48:27;22.20;99.90
51035;DHT22;37062;52.546;13.230;2022-08-03T03:50:54;22.20;99.90
51035;DHT22;37062;52.546;13.230;2022-08-03T03:53:23;22.10;99.90
51035;DHT22;37062;52.546;13.230;2022-08-03T03:55:52;22.10;99.90
51035;DHT22;37062;52.546;13.230;2022-08-03T03:58:19;22.20;99.90
51035;DHT22;37062;52.546;13.230;2022-08-03T04:00:48;22.30;99.90
51035;DHT22;37062;52.546;13.230;2022-08-03T04:03:15;22.40;99.90
51035;DHT22;37062;52.546;13.230;2022-08-03T04:05:43;22.50;99.90
51035;DHT22;37062;52.546;13.230;2022-08-03T04:08:27;22.70;99.90
51035;DHT22;37062;52.546;13.230;2022-08-03T04:11:15;22.90;99.90
51035;DHT22;37062;52.546;13.230;2022-08-03T04:13:50;23.80;99.90
51035;DHT22;37062;52.546;13.230;2022-08-03T04:16:23;24.70;99.90
51035;DHT22;37062;52.546;13.230;2022-08-03T04:18:54;25.50;99.90
51035;DHT22;37062;52.546;13.230;2022-08-03T04:21:23;26.20;99.90
51035;DHT22;37062;52.546;13.230;2022-08-03T04:23:55;26.70;99.90
51035;DHT22;37062;52.546;13.230;2022-08-03T04:26:27;27.10;99.90
51035;DHT22;37062;52.546;13.230;2022-08-03T04:28:54;27.30;99.90
51035;DHT22;37062;52.546;13.230;2022-08-03T04:31:24;27.20;99.90
51035;DHT22;37062;52.546;13.230;2022-08-03T04:33:52;26.90;99.90
51035;DHT22;37062;52.546;13.230;2022-08-03T04:36:22;26.60;99.90
51035;DHT22;37062;52.546;13.230;2022-08-03T04:38:55;26.70;99.90
51035;DHT22;37062;52.546;13.230;2022-08-03T04:41:25;26.80;99.90
51035;DHT22;37062;52.546;13.230;2022-08-03T04:43:55;26.80;99.90
51035;DHT22;37062;52.546;13.230;2022-08-03T04:46:26;26.80;99.90
51035;DHT22;37062;52.546;13.230;2022-08-03T04:48:54;26.80;99.90
51035;DHT22;37062;52.546;13.230;2022-08-03T04:51:22;26.60;99.90
51035;DHT22;37062;52.546;13.230;2022-08-03T04:53:49;26.50;99.90
51035;DHT22;37062;52.546;13.230;2022-08-03T04:56:16;26.30;99.90
51035;DHT22;37062;52.546;13.230;2022-08-03T04:58:44;26.00;99.90
51035;DHT22;37062;52.546;13.230;2022-08-03T05:01:11;25.90;99.90
51035;DHT22;37062;52.546;13.230;2022-08-03T05:03:39;25.80;99.90
51035;DHT22;37062;52.546;13.230;2022-08-03T05:06:06;26.00;99.90
51035;DHT22;37062;52.546;13.230;2022-08-03T05:08:34;26.30;99.90
51035;DHT22;37062;52.546;13.230;2022-08-03T05:11:01;26.90;99.90
51035;DHT22;37062;52.546;13.230;2022-08-03T05:13:30;27.60;99.90
51035;DHT22;37062;52.546;13.230;2022-08-03T05:15:57;28.00;99.90
51035;DHT22;37062;52.546;13.230;2022-08-03T05:18:26;28.50;99.90
51035;DHT22;37062;52.546;13.230;2022-08-03T05:20:54;29.40;99.90
51035;DHT22;37062;52.546;13.230;2022-08-03T05:23:21;29.90;99.90
51035;DHT22;37062;52.546;13.230;2022-08-03T05:25:51;30.10;99.90
51035;DHT22;37062;52.546;13.230;2022-08-03T05:28:18;29.80;99.90
51035;DHT22;37062;52.546;13.230;2022-08-03T05:30:45;29.30;99.90
51035;DHT22;37062;52.546;13.230;2022-08-03T05:33:12;28.90;99.90
51035;DHT22;37062;52.546;13.230;2022-08-03T05:35:39;28.80;99.90
51035;DHT22;37062;52.546;13.230;2022-08-03T05:38:07;29.10;99.90
51035;DHT22;37062;52.546;13.230;2022-08-03T05:40:35;29.80;99.90
51035;DHT22;37062;52.546;13.230;2022-08-03T05:43:02;30.40;99.90
51035;DHT22;37062;52.546;13.230;2022-08-03T05:45:30;30.50;99.90
51035;DHT22;37062;52.546;13.230;2022-08-03T05:47:57;30.30;99.90
51035;DHT22;37062;52.546;13.230;2022-08-03T05:50:24;30.00;99.90
51035;DHT22;37062;52.546;13.230;2022-08-03T05:52:54;29.60;99.90
51035;DHT22;37062;52.546;13.230;2022-08-03T05:55:23;29.40;99.90
51035;DHT22;37062;52.546;13.230;2022-08-03T05:57:51;29.20;99.90
51035;DHT22;37062;52.546;13.230;2022-08-03T06:00:18;29.20;99.90
51035;DHT22;37062;52.546;13.230;2022-08-03T06:02:45;29.20;99.90
51035;DHT22;37062;52.546;13.230;2022-08-03T06:05:12;29.40;99.90
51035;DHT22;37062;52.546;13.230;2022-08-03T06:07:39;29.70;99.90
51035;DHT22;37062;52.546;13.230;2022-08-03T06:10:07;29.80;99.90
51035;DHT22;37062;52.546;13.230;2022-08-03T06:12:36;30.00;99.90
51035;DHT22;37062;52.546;13.230;2022-08-03T06:15:06;30.20;99.90
51035;DHT22;37062;52.546;13.230;2022-08-03T06:17:34;30.40;99.90
51035;DHT22;37062;52.546;13.230;2022-08-03T06:20:01;31.00;99.90
51035;DHT22;37062;52.546;13.230;2022-08-03T06:22:28;31.60;99.90
51035;DHT22;37062;52.546;13.230;2022-08-03T06:24:55;32.00;99.90
51035;DHT22;37062;52.546;13.230;2022-08-03T06:27:23;31.80;99.90
51035;DHT22;37062;52.546;13.230;2022-08-03T06:29:51;31.70;99.90
51035;DHT22;37062;52.546;13.230;2022-08-03T06:32:18;31.30;99.90
51035;DHT22;37062;52.546;13.230;2022-08-03T06:34:47;31.00;99.90
51035;DHT22;37062;52.546;13.230;2022-08-03T06:37:14;30.80;99.90
51035;DHT22;37062;52.546;13.230;2022-08-03T06:39:41;30.90;99.90
51035;DHT22;37062;52.546;13.230;2022-08-03T06:42:08;31.40;99.90
51035;DHT22;37062;52.546;13.230;2022-08-03T06:44:35;31.90;99.90
51035;DHT22;37062;52.546;13.230;2022-08-03T06:47:04;32.30;99.90
51035;DHT22;37062;52.546;13.230;2022-08-03T06:49:32;33.20;99.90
51035;DHT22;37062;52.546;13.230;2022-08-03T06:51:59;33.60;99.90
51035;DHT22;37062;52.546;13.230;2022-08-03T06:54:26;33.70;99.90
51035;DHT22;37062;52.546;13.230;2022-08-03T06:56:53;34.00;99.90
51035;DHT22;37062;52.546;13.230;2022-08-03T06:59:20;34.00;99.90
51035;DHT22;37062;52.546;13.230;2022-08-03T07:01:47;33.60;99.90
51035;DHT22;37062;52.546;13.230;2022-08-03T07:04:15;33.00;99.90
51035;DHT22;37062;52.546;13.230;2022-08-03T07:06:42;32.80;99.90
51035;DHT22;37062;52.546;13.230;2022-08-03T07:09:09;32.70;99.90
51035;DHT22;37062;52.546;13.230;2022-08-03T07:11:36;32.70;99.90
51035;DHT22;37062;52.546;13.230;2022-08-03T07:14:03;32.60;99.90
51035;DHT22;37062;52.546;13.230;2022-08-03T07:16:30;32.70;99.90
51035;DHT22;37062;52.546;13.230;2022-08-03T07:18:57;32.90;99.90
51035;DHT22;37062;52.546;13.230;2022-08-03T07:21:25;32.80;99.90
51035;DHT22;37062;52.546;13.230;2022-08-03T07:23:52;32.80;99.90
51035;DHT22;37062;52.546;13.230;2022-08-03T07:26:19;32.80;99.90
51035;DHT22;37062;52.546;13.230;2022-08-03T07:28:46;32.90;99.90
51035;DHT22;37062;52.546;13.230;2022-08-03T07:31:13;32.90;99.90
51035;DHT22;37062;52.546;13.230;2022-08-03T07:33:40;33.00;99.90
51035;DHT22;37062;52.546;13.230;2022-08-03T07:36:07;33.10;99.90
51035;DHT22;37062;52.546;13.230;2022-08-03T07:38:36;33.00;99.90
51035;DHT22;37062;52.546;13.230;2022-08-03T07:41:06;32.80;99.90
51035;DHT22;37062;52.546;13.230;2022-08-03T07:43:33;33.30;99.90
51035;DHT22;37062;52.546;13.230;2022-08-03T07:46:00;33.90;99.90
51035;DHT22;37062;52.546;13.230;2022-08-03T07:48:30;34.40;99.90
51035;DHT22;37062;52.546;13.230;2022-08-03T07:50:57;34.60;99.50
51035;DHT22;37062;52.546;13.230;2022-08-03T07:53:24;35.00;99.60
51035;DHT22;37062;52.546;13.230;2022-08-03T07:55:52;35.80;98.30
51035;DHT22;37062;52.546;13.230;2022-08-03T07:58:19;36.40;97.50
51035;DHT22;37062;52.546;13.230;2022-08-03T08:00:48;37.20;97.00
51035;DHT22;37062;52.546;13.230;2022-08-03T08:03:17;38.00;96.30
51035;DHT22;37062;52.546;13.230;2022-08-03T08:05:46;38.60;95.40
51035;DHT22;37062;52.546;13.230;2022-08-03T08:08:13;39.10;94.40
51035;DHT22;37062;52.546;13.230;2022-08-03T08:10:40;39.20;94.00
51035;DHT22;37062;52.546;13.230;2022-08-03T08:13:09;39.50;93.40
51035;DHT22;37062;52.546;13.230;2022-08-03T08:15:36;39.80;93.00
51035;DHT22;37062;52.546;13.230;2022-08-03T08:18:03;40.20;92.10
51035;DHT22;37062;52.546;13.230;2022-08-03T08:20:32;40.70;91.60
51035;DHT22;37062;52.546;13.230;2022-08-03T08:23:01;41.10;90.00
51035;DHT22;37062;52.546;13.230;2022-08-03T08:25:29;41.00;88.40
51035;DHT22;37062;52.546;13.230;2022-08-03T08:27:57;41.00;85.50
51035;DHT22;37062;52.546;13.230;2022-08-03T08:30:27;41.10;85.80
51035;DHT22;37062;52.546;13.230;2022-08-03T08:32:54;41.10;84.20
51035;DHT22;37062;52.546;13.230;2022-08-03T08:35:22;41.20;85.80
51035;DHT22;37062;52.546;13.230;2022-08-03T08:37:49;41.30;85.70
51035;DHT22;37062;52.546;13.230;2022-08-03T08:40:19;41.50;85.30
51035;DHT22;37062;52.546;13.230;2022-08-03T08:42:47;41.60;84.80
51035;DHT22;37062;52.546;13.230;2022-08-03T08:45:14;41.80;84.70
51035;DHT22;37062;52.546;13.230;2022-08-03T08:47:45;41.90;84.60
51035;DHT22;37062;52.546;13.230;2022-08-03T08:50:13;41.70;84.60
51035;DHT22;37062;52.546;13.230;2022-08-03T08:52:40;41.90;84.10
51035;DHT22;37062;52.546;13.230;2022-08-03T08:55:12;41.90;83.20
51035;DHT22;37062;52.546;13.230;2022-08-03T08:57:44;42.00;82.60
51035;DHT22;37062;52.546;13.230;2022-08-03T09:00:14;42.20;82.70
51035;DHT22;37062;52.546;13.230;2022-08-03T09:02:42;42.20;81.10
51035;DHT22;37062;52.546;13.230;2022-08-03T09:05:11;42.30;81.60
51035;DHT22;37062;52.546;13.230;2022-08-03T09:07:38;42.40;81.80
51035;DHT22;37062;52.546;13.230;2022-08-03T09:10:07;42.60;80.40
51035;DHT22;37062;52.546;13.230;2022-08-03T09:12:37;42.40;80.00
51035;DHT22;37062;52.546;13.230;2022-08-03T09:15:19;42.20;80.20
51035;DHT22;37062;52.546;13.230;2022-08-03T09:17:47;42.30;80.20
51035;DHT22;37062;52.546;13.230;2022-08-03T09:20:17;42.20;80.00
51035;DHT22;37062;52.546;13.230;2022-08-03T09:22:56;42.20;80.40
51035;DHT22;37062;52.546;13.230;2022-08-03T09:25:31;42.60;80.00
51035;DHT22;37062;52.546;13.230;2022-08-03T09:28:09;42.50;81.00
51035;DHT22;37062;52.546;13.230;2022-08-03T09:30:38;42.60;80.20
51035;DHT22;37062;52.546;13.230;2022-08-03T09:33:07;42.30;80.20
51035;DHT22;37062;52.546;13.230;2022-08-03T09:35:47;42.60;79.90
51035;DHT22;37062;52.546;13.230;2022-08-03T09:38:16;42.80;79.80
51035;DHT22;37062;52.546;13.230;2022-08-03T09:40:44;42.80;79.20
51035;DHT22;37062;52.546;13.230;2022-08-03T09:43:11;42.70;79.30
51035;DHT22;37062;52.546;13.230;2022-08-03T09:45:39;42.70;79.40
51035;DHT22;37062;52.546;13.230;2022-08-03T09:48:23;42.70;79.00
51035;DHT22;37062;52.546;13.230;2022-08-03T09:50:53;42.70;79.20
51035;DHT22;37062;52.546;13.230;2022-08-03T09:53:21;42.80;78.70
51035;DHT22;37062;52.546;13.230;2022-08-03T09:55:53;42.70;79.10
51035;DHT22;37062;52.546;13.230;2022-08-03T09:58:21;42.40;79.30
51035;DHT22;37062;52.546;13.230;2022-08-03T10:00:57;42.20;79.70
51035;DHT22;37062;52.546;13.230;2022-08-03T10:03:26;42.00;80.10
51035;DHT22;37062;52.546;13.230;2022-08-03T10:05:55;42.10;79.90
51035;DHT22;37062;52.546;13.230;2022-08-03T10:08:23;42.00;79.50
51035;DHT22;37062;52.546;13.230;2022-08-03T10:10:51;41.70;80.30
51035;DHT22;37062;52.546;13.230;2022-08-03T10:13:20;41.30;80.90
51035;DHT22;37062;52.546;13.230;2022-08-03T10:15:48;41.40;80.50
51035;DHT22;37062;52.546;13.230;2022-08-03T10:18:15;41.20;80.80
51035;DHT22;37062;52.546;13.230;2022-08-03T10:20:45;40.70;81.40
51035;DHT22;37062;52.546;13.230;2022-08-03T10:23:16;40.50;81.90
51035;DHT22;37062;52.546;13.230;2022-08-03T10:25:46;40.30;82.00
51035;DHT22;37062;52.546;13.230;2022-08-03T10:28:15;40.00;82.80
51035;DHT22;37062;52.546;13.230;2022-08-03T10:30:47;39.60;82.40
51035;DHT22;37062;52.546;13.230;2022-08-03T10:33:18;39.00;83.60
51035;DHT22;37062;52.546;13.230;2022-08-03T10:35:47;38.50;84.00
51035;DHT22;37062;52.546;13.230;2022-08-03T10:38:19;37.80;84.20
51035;DHT22;37062;52.546;13.230;2022-08-03T10:40:49;37.10;85.80
51035;DHT22;37062;52.546;13.230;2022-08-03T10:43:21;36.80;87.00
51035;DHT22;37062;52.546;13.230;2022-08-03T10:45:48;36.70;87.40
51035;DHT22;37062;52.546;13.230;2022-08-03T10:48:17;36.60;87.40
51035;DHT22;37062;52.546;13.230;2022-08-03T10:50:45;36.40;87.90
51035;DHT22;37062;52.546;13.230;2022-08-03T10:53:14;36.20;87.70
51035;DHT22;37062;52.546;13.230;2022-08-03T10:55:44;35.90;88.90
51035;DHT22;37062;52.546;13.230;2022-08-03T10:58:48;35.80;88.90
51035;DHT22;37062;52.546;13.230;2022-08-03T11:01:17;35.70;89.50
51035;DHT22;37062;52.546;13.230;2022-08-03T11:04:16;35.60;89.20
51035;DHT22;37062;52.546;13.230;2022-08-03T11:06:44;35.60;89.70
51035;DHT22;37062;52.546;13.230;2022-08-03T11:09:16;35.60;89.80
51035;DHT22;37062;52.546;13.230;2022-08-03T11:11:46;35.60;88.80
51035;DHT22;37062;52.546;13.230;2022-08-03T11:14:16;35.50;89.90
51035;DHT22;37062;52.546;13.230;2022-08-03T11:16:45;35.20;89.40
51035;DHT22;37062;52.546;13.230;2022-08-03T11:19:14;34.80;90.10
51035;DHT22;37062;52.546;13.230;2022-08-03T11:21:52;34.60;90.20
51035;DHT22;37062;52.546;13.230;2022-08-03T11:24:57;34.50;90.50
51035;DHT22;37062;52.546;13.230;2022-08-03T11:27:28;34.60;90.60
51035;DHT22;37062;52.546;13.230;2022-08-03T11:30:03;34.70;90.50
51035;DHT22;37062;52.546;13.230;2022-08-03T11:32:58;34.70;90.70
51035;DHT22;37062;52.546;13.230;2022-08-03T11:35:27;34.80;90.40
51035;DHT22;37062;52.546;13.230;2022-08-03T11:38:05;34.70;90.90
51035;DHT22;37062;52.546;13.230;2022-08-03T11:40:38;34.60;90.70
51035;DHT22;37062;52.546;13.230;2022-08-03T11:43:08;34.30;90.70
51035;DHT22;37062;52.546;13.230;2022-08-03T11:45:36;34.30;91.10
51035;DHT22;37062;52.546;13.230;2022-08-03T11:48:13;34.30;90.70
51035;DHT22;37062;52.546;13.230;2022-08-03T11:50:41;34.20;91.20
51035;DHT22;37062;52.546;13.230;2022-08-03T11:53:14;34.30;91.30
51035;DHT22;37062;52.546;13.230;2022-08-03T11:55:42;34.50;91.10
51035;DHT22;37062;52.546;13.230;2022-08-03T11:58:21;34.50;90.80
51035;DHT22;37062;52.546;13.230;2022-08-03T12:00:49;34.50;91.10
51035;DHT22;37062;52.546;13.230;2022-08-03T12:03:17;34.50;90.80
51035;DHT22;37062;52.546;13.230;2022-08-03T12:05:47;34.50;91.30
51035;DHT22;37062;52.546;13.230;2022-08-03T12:08:16;34.50;91.40
51035;DHT22;37062;52.546;13.230;2022-08-03T12:10:48;34.60;91.30
51035;DHT22;37062;52.546;13.230;2022-08-03T12:13:16;34.70;91.20
51035;DHT22;37062;52.546;13.230;2022-08-03T12:15:49;34.70;91.10
51035;DHT22;37062;52.546;13.230;2022-08-03T12:18:18;34.80;91.10
51035;DHT22;37062;52.546;13.230;2022-08-03T12:20:46;34.80;91.10
51035;DHT22;37062;52.546;13.230;2022-08-03T12:23:14;34.80;91.00
51035;DHT22;37062;52.546;13.230;2022-08-03T12:25:42;34.80;91.10
51035;DHT22;37062;52.546;13.230;2022-08-03T12:28:15;34.80;91.00
51035;DHT22;37062;52.546;13.230;2022-08-03T12:30:46;34.70;91.00
51035;DHT22;37062;52.546;13.230;2022-08-03T12:33:24;34.60;91.10
51035;DHT22;37062;52.546;13.230;2022-08-03T12:36:04;34.50;91.10
51035;DHT22;37062;52.546;13.230;2022-08-03T12:38:32;34.50;91.50
51035;DHT22;37062;52.546;13.230;2022-08-03T12:41:04;34.50;91.60
51035;DHT22;37062;52.546;13.230;2022-08-03T12:43:31;34.60;91.50
51035;DHT22;37062;52.546;13.230;2022-08-03T12:46:13;34.50;90.90
51035;DHT22;37062;52.546;13.230;2022-08-03T12:49:04;34.50;91.30
51035;DHT22;37062;52.546;13.230;2022-08-03T12:51:33;34.60;91.50
51035;DHT22;37062;52.546;13.230;2022-08-03T12:54:00;34.60;91.20
51035;DHT22;37062;52.546;13.230;2022-08-03T12:56:28;34.70;91.40
51035;DHT22;37062;52.546;13.230;2022-08-03T12:58:55;34.70;91.40
51035;DHT22;37062;52.546;13.230;2022-08-03T13:01:35;34.80;91.40
51035;DHT22;37062;52.546;13.230;2022-08-03T13:04:02;34.80;91.30
51035;DHT22;37062;52.546;13.230;2022-08-03T13:06:30;34.80;91.60
51035;DHT22;37062;52.546;13.230;2022-08-03T13:09:02;34.80;91.50
51035;DHT22;37062;52.546;13.230;2022-08-03T13:11:30;34.90;91.40
51035;DHT22;37062;52.546;13.230;2022-08-03T13:13:57;34.80;91.60
51035;DHT22;37062;52.546;13.230;2022-08-03T13:16:25;34.90;91.70
51035;DHT22;37062;52.546;13.230;2022-08-03T13:18:52;34.90;91.60
51035;DHT22;37062;52.546;13.230;2022-08-03T13:21:20;34.80;91.40
51035;DHT22;37062;52.546;13.230;2022-08-03T13:23:47;34.80;91.60
51035;DHT22;37062;52.546;13.230;2022-08-03T13:26:17;34.60;91.80
51035;DHT22;37062;52.546;13.230;2022-08-03T13:28:44;34.60;91.60
51035;DHT22;37062;52.546;13.230;2022-08-03T13:31:11;34.60;91.70
51035;DHT22;37062;52.546;13.230;2022-08-03T13:33:39;34.40;92.20
51035;DHT22;37062;52.546;13.230;2022-08-03T13:36:07;34.50;91.90
51035;DHT22;37062;52.546;13.230;2022-08-03T13:38:34;34.60;92.10
51035;DHT22;37062;52.546;13.230;2022-08-03T13:41:01;34.60;91.90
51035;DHT22;37062;52.546;13.230;2022-08-03T13:43:31;34.70;92.10
51035;DHT22;37062;52.546;13.230;2022-08-03T13:45:59;34.80;91.60
51035;DHT22;37062;52.546;13.230;2022-08-03T13:48:26;34.60;91.90
51035;DHT22;37062;52.546;13.230;2022-08-03T13:50:54;34.60;92.10
51035;DHT22;37062;52.546;13.230;2022-08-03T13:53:21;34.70;92.20
51035;DHT22;37062;52.546;13.230;2022-08-03T13:55:48;34.80;92.50
51035;DHT22;37062;52.546;13.230;2022-08-03T13:58:15;34.80;92.20
51035;DHT22;37062;52.546;13.230;2022-08-03T14:00:42;34.80;92.00
51035;DHT22;37062;52.546;13.230;2022-08-03T14:03:09;34.80;92.80
51035;DHT22;37062;52.546;13.230;2022-08-03T14:05:36;34.90;92.30
51035;DHT22;37062;52.546;13.230;2022-08-03T14:08:05;34.90;92.30
51035;DHT22;37062;52.546;13.230;2022-08-03T14:10:33;34.90;92.20
51035;DHT22;37062;52.546;13.230;2022-08-03T14:13:01;35.00;92.10
51035;DHT22;37062;52.546;13.230;2022-08-03T14:15:27;35.00;92.20
51035;DHT22;37062;52.546;13.230;2022-08-03T14:17:55;35.10;92.00
51035;DHT22;37062;52.546;13.230;2022-08-03T14:20:22;35.10;92.40
51035;DHT22;37062;52.546;13.230;2022-08-03T14:22:49;35.10;92.10
51035;DHT22;37062;52.546;13.230;2022-08-03T14:25:17;35.10;92.00
51035;DHT22;37062;52.546;13.230;2022-08-03T14:27:44;35.10;92.20
51035;DHT22;37062;52.546;13.230;2022-08-03T14:30:12;35.10;92.30
51035;DHT22;37062;52.546;13.230;2022-08-03T14:32:39;35.10;92.20
51035;DHT22;37062;52.546;13.230;2022-08-03T14:35:07;35.00;92.00
51035;DHT22;37062;52.546;13.230;2022-08-03T14:37:34;34.90;92.00
51035;DHT22;37062;52.546;13.230;2022-08-03T14:40:02;34.80;92.10
51035;DHT22;37062;52.546;13.230;2022-08-03T14:42:30;34.70;92.20
51035;DHT22;37062;52.546;13.230;2022-08-03T14:44:57;34.70;92.20
51035;DHT22;37062;52.546;13.230;2022-08-03T14:47:25;34.70;92.20
51035;DHT22;37062;52.546;13.230;2022-08-03T14:49:52;34.70;92.40
51035;DHT22;37062;52.546;13.230;2022-08-03T14:52:19;34.80;92.30
51035;DHT22;37062;52.546;13.230;2022-08-03T14:54:45;34.80;92.20
51035;DHT22;37062;52.546;13.230;2022-08-03T14:57:12;34.80;92.40
51035;DHT22;37062;52.546;13.230;2022-08-03T14:59:41;34.80;92.40
51035;DHT22;37062;52.546;13.230;2022-08-03T15:02:08;34.80;92.20
51035;DHT22;37062;52.546;13.230;2022-08-03T15:04:35;34.70;92.20
51035;DHT22;37062;52.546;13.230;2022-08-03T15:07:02;34.60;92.10
51035;DHT22;37062;52.546;13.230;2022-08-03T15:09:29;34.50;92.30
51035;DHT22;37062;52.546;13.230;2022-08-03T15:11:56;34.40;92.40
51035;DHT22;37062;52.546;13.230;2022-08-03T15:14:23;34.50;92.40
51035;DHT22;37062;52.546;13.230;2022-08-03T15:16:52;34.50;92.30
51035;DHT22;37062;52.546;13.230;2022-08-03T15:19:19;34.50;92.60
51035;DHT22;37062;52.546;13.230;2022-08-03T15:21:46;34.60;92.70
51035;DHT22;37062;52.546;13.230;2022-08-03T15:24:13;34.60;92.70
51035;DHT22;37062;52.546;13.230;2022-08-03T15:26:40;34.60;92.30
51035;DHT22;37062;52.546;13.230;2022-08-03T15:29:07;34.50;92.70
51035;DHT22;37062;52.546;13.230;2022-08-03T15:31:34;34.50;92.90